Time;durP1;ratioP1;P1;durP2;ratioP2;P2;SDS_P1;SDS_P2;PMS_P1;PMS_P2;Temp;Humidity;BMP_temperature;BMP_pressure;BME280_temperature;BME280_humidity;BME280_pressure;Samples;Min_cycle;Max_cycle;Signal;HPM_P1;HPM_P2
2023/06/30 00:01:48;;;;;;;6.82;2.28;;;;;;;-142.75;100.00;76647.06;5062628;28;20543;-64
2023/06/30 00:04:16;;;;;;;4.70;1.23;;;;;;;-142.75;100.00;76649.03;5061819;28;20055;-64
2023/06/30 00:06:42;;;;;;;5.25;1.67;;;;;;;-142.75;100.00;76652.97;5061823;28;20078;-64
2023/06/30 00:09:08;;;;;;;4.57;1.50;;;;;;;-142.75;100.00;76656.91;5061614;28;20020;-64
2023/06/30 00:11:33;;;;;;;3.25;1.27;;;;;;;-142.75;100.00;76664.78;5061525;28;20729;-64
2023/06/30 00:13:58;;;;;;;5.03;1.98;;;;;;;-142.75;100.00;76649.03;5061592;28;20070;-64
2023/06/30 00:16:24;;;;;;;6.40;1.50;;;;;;;-142.75;100.00;76649.03;5061673;28;20020;-64
2023/06/30 00:18:49;;;;;;;4.40;1.33;;;;;;;-142.75;100.00;76639.19;5061921;28;20103;-64
2023/06/30 00:21:15;;;;;;;3.53;1.13;;;;;;;-142.75;100.00;76641.16;5059252;28;20028;-64
2023/06/30 00:23:41;;;;;;;3.22;1.30;;;;;;;-142.75;100.00;76649.03;5046420;28;20054;-64
2023/06/30 00:26:06;;;;;;;3.60;1.13;;;;;;;-142.75;100.00;76662.81;5045777;28;20049;-64
2023/06/30 00:28:32;;;;;;;4.15;1.20;;;;;;;-142.75;100.00;76674.63;5045811;28;20059;-64
2023/06/30 00:30:57;;;;;;;4.32;1.40;;;;;;;-142.75;100.00;76684.47;5045973;28;20037;-64
2023/06/30 00:33:22;;;;;;;7.53;1.42;;;;;;;-142.75;100.00;76688.41;5045465;28;20087;-64
2023/06/30 00:35:48;;;;;;;2.40;1.02;;;;;;;-142.75;100.00;76684.47;5045330;28;20684;-64
2023/06/30 00:38:13;;;;;;;4.88;1.30;;;;;;;-142.75;100.00;76684.47;5044648;28;20457;-64
2023/06/30 00:40:38;;;;;;;12.30;1.42;;;;;;;-142.75;100.00;76686.44;5045028;28;20024;-64
2023/06/30 00:43:04;;;;;;;4.70;0.95;;;;;;;-142.75;100.00;76688.41;5045231;28;20024;-64
2023/06/30 00:45:29;;;;;;;5.28;1.65;;;;;;;-142.75;100.00;76692.34;5061625;28;20032;-64
2023/06/30 00:47:55;;;;;;;6.68;1.55;;;;;;;-142.75;100.00;76680.53;5064784;28;20025;-64
2023/06/30 00:50:21;;;;;;;8.15;1.25;;;;;;;-142.75;100.00;76674.63;5063592;28;20024;-64
2023/06/30 00:52:48;;;;;;;6.05;1.10;;;;;;;-142.75;100.00;76680.53;5064922;28;20140;-64
2023/06/30 00:55:15;;;;;;;3.70;1.27;;;;;;;-142.75;100.00;76688.41;5062690;28;20073;-64
2023/06/30 00:57:41;;;;;;;7.28;1.63;;;;;;;-142.75;100.00;76692.34;5045223;28;20028;-64
2023/06/30 01:00:10;;;;;;;3.03;1.23;;;;;;;-142.75;100.00;76706.13;5044860;28;20031;-64
2023/06/30 01:02:43;;;;;;;4.60;1.52;;;;;;;-142.75;100.00;76698.25;5046118;28;20047;-64
2023/06/30 01:05:16;;;;;;;4.05;1.13;;;;;;;-142.75;100.00;76700.22;5044965;28;20075;-64
2023/06/30 01:07:57;;;;;;;3.58;1.13;;;;;;;-142.75;100.00;76698.25;5044989;28;20492;-64
2023/06/30 01:10:27;;;;;;;8.05;1.45;;;;;;;-142.75;100.00;76702.19;5044661;28;20025;-64
2023/06/30 01:12:52;;;;;;;4.03;1.10;;;;;;;-142.75;100.00;76708.09;5044930;28;20056;-64
2023/06/30 01:15:18;;;;;;;2.85;0.90;;;;;;;-142.75;100.00;76712.03;5044973;28;20057;-64
2023/06/30 01:17:47;;;;;;;4.72;1.40;;;;;;;-142.75;100.00;76692.34;5044685;28;20040;-63
2023/06/30 01:20:16;;;;;;;2.92;1.10;;;;;;;-142.75;100.00;76694.31;5044873;28;20104;-64
2023/06/30 01:22:50;;;;;;;5.28;1.33;;;;;;;-142.75;100.00;76700.22;5044701;28;20120;-64
2023/06/30 01:25:21;;;;;;;5.53;1.48;;;;;;;-142.75;100.00;76692.34;5044851;28;20029;-64
2023/06/30 01:27:46;;;;;;;3.92;1.02;;;;;;;-142.75;100.00;76708.09;5044540;28;20493;-67
2023/06/30 01:30:13;;;;;;;3.35;1.20;;;;;;;-142.75;100.00;76706.13;5044401;28;20017;-64
2023/06/30 01:32:40;;;;;;;9.63;2.13;;;;;;;-142.75;100.00;76706.13;5044219;28;20021;-64
2023/06/30 01:35:05;;;;;;;4.95;1.95;;;;;;;-142.75;100.00;76712.03;5044626;28;20411;-63
2023/06/30 01:37:31;;;;;;;5.43;1.55;;;;;;;-142.75;100.00;76715.97;5044114;28;20120;-64
2023/06/30 01:39:56;;;;;;;4.78;1.27;;;;;;;-142.75;100.00;76712.03;5043987;28;20054;-64
2023/06/30 01:42:22;;;;;;;5.82;1.13;;;;;;;-142.75;100.00;76717.94;5043027;28;20108;-64
2023/06/30 01:44:49;;;;;;;2.10;1.02;;;;;;;-142.75;100.00;76719.91;5051668;28;20020;-64
2023/06/30 01:47:16;;;;;;;1.45;0.75;;;;;;;-142.75;100.00;76715.97;5063880;28;20604;-64
2023/06/30 01:49:42;;;;;;;3.92;1.30;;;;;;;-142.75;100.00;76715.97;5062729;28;20488;-64
2023/06/30 01:52:07;;;;;;;4.47;1.10;;;;;;;-142.75;100.00;76719.91;5052902;28;20071;-63
2023/06/30 01:54:33;;;;;;;3.92;0.90;;;;;;;-142.75;100.00;76719.91;5044196;28;20025;-64
2023/06/30 01:56:58;;;;;;;6.00;0.90;;;;;;;-142.75;100.00;76723.84;5043926;28;20021;-64
2023/06/30 01:59:24;;;;;;;5.65;1.20;;;;;;;-142.75;100.00;76729.75;5044019;28;20016;-64
2023/06/30 02:01:49;;;;;;;2.70;1.13;;;;;;;-142.75;100.00;76727.78;5044317;28;20119;-64
2023/06/30 02:04:15;;;;;;;6.97;1.60;;;;;;;-142.75;100.00;76723.84;5043788;28;20040;-64
2023/06/30 02:06:42;;;;;;;4.97;1.65;;;;;;;-142.75;100.00;76717.94;5043879;28;20032;-64
2023/06/30 02:09:08;;;;;;;4.15;1.17;;;;;;;-142.75;100.00;76727.78;5043461;28;20029;-64
2023/06/30 02:11:33;;;;;;;6.40;1.30;;;;;;;-142.75;100.00;76723.84;5052557;28;20098;-64
2023/06/30 02:13:59;;;;;;;3.83;1.50;;;;;;;-142.75;100.00;76729.75;5063060;28;20055;-64
2023/06/30 02:16:24;;;;;;;5.85;1.02;;;;;;;-142.75;100.00;76715.97;5061781;28;20044;-64
2023/06/30 02:18:51;;;;;;;2.88;1.00;;;;;;;-142.75;100.00;76723.84;5063251;28;20070;-64
2023/06/30 02:21:16;;;;;;;2.15;1.20;;;;;;;-142.75;100.00;76719.91;5062975;28;20029;-65
2023/06/30 02:23:42;;;;;;;3.65;1.60;;;;;;;-142.75;100.00;76712.03;5060710;28;20029;-64
2023/06/30 02:26:07;;;;;;;7.28;1.60;;;;;;;-142.75;100.00;76719.91;5043453;28;20498;-64
2023/06/30 02:28:32;;;;;;;6.57;1.35;;;;;;;-142.75;100.00;76717.94;5042303;28;20037;-64
2023/06/30 02:30:58;;;;;;;5.13;1.02;;;;;;;-142.75;100.00;76723.84;5043221;28;20147;-64
2023/06/30 02:33:23;;;;;;;4.63;1.40;;;;;;;-142.75;100.00;76719.91;5061844;28;21370;-64
2023/06/30 02:35:51;;;;;;;8.05;1.20;;;;;;;-142.75;100.00;76715.97;5062927;28;20435;-63
2023/06/30 02:38:16;;;;;;;2.88;1.25;;;;;;;-142.75;100.00;76723.84;5050198;28;20029;-64
2023/06/30 02:40:41;;;;;;;2.80;1.20;;;;;;;-142.75;100.00;76723.84;5043274;28;20465;-64
2023/06/30 02:43:07;;;;;;;3.03;1.08;;;;;;;-142.75;100.00;76733.69;5041950;28;20017;-64
2023/06/30 02:45:32;;;;;;;6.68;1.30;;;;;;;-142.75;100.00;76727.78;5042987;28;20025;-64
2023/06/30 02:47:57;;;;;;;4.93;1.48;;;;;;;-142.75;100.00;76735.66;5042951;28;20573;-64
2023/06/30 02:50:31;;;;;;;4.75;1.30;;;;;;;-142.75;100.00;76715.97;5042982;28;20484;-64
2023/06/30 02:52:58;;;;;;;3.40;1.42;;;;;;;-142.75;100.00;76719.91;5042789;28;20063;-64
2023/06/30 02:55:24;;;;;;;4.22;1.05;;;;;;;-142.75;100.00;76719.91;5061948;28;20538;-64
2023/06/30 02:57:49;;;;;;;4.13;1.55;;;;;;;-142.75;100.00;76727.78;5059584;28;20103;-64
2023/06/30 03:00:15;;;;;;;8.80;1.60;;;;;;;-142.75;100.00;76729.75;5042932;28;20562;-64
2023/06/30 03:02:40;;;;;;;3.47;1.40;;;;;;;-142.75;100.00;76723.84;5043432;28;20028;-64
2023/06/30 03:05:08;;;;;;;3.97;1.55;;;;;;;-142.75;100.00;76731.72;5042498;28;20389;-64
2023/06/30 03:07:33;;;;;;;7.80;1.50;;;;;;;-142.75;100.00;76729.75;5062397;28;20447;-64
2023/06/30 03:09:59;;;;;;;6.63;1.10;;;;;;;-142.75;100.00;76735.66;5060624;28;20027;-64
2023/06/30 03:12:24;;;;;;;9.20;1.20;;;;;;;-142.75;100.00;76731.72;5042622;28;20079;-64
2023/06/30 03:14:50;;;;;;;3.72;1.23;;;;;;;-142.75;100.00;76731.72;5044411;28;20032;-64
2023/06/30 03:17:15;;;;;;;3.53;1.08;;;;;;;-142.75;100.00;76717.94;5062516;28;20066;-64
2023/06/30 03:19:40;;;;;;;3.40;1.17;;;;;;;-142.75;100.00;76714.00;5062317;28;20043;-64
2023/06/30 03:22:06;;;;;;;6.85;1.33;;;;;;;-142.75;100.00;76712.03;5061879;28;20028;-64
2023/06/30 03:24:31;;;;;;;3.15;1.10;;;;;;;-142.75;100.00;76696.28;5061996;28;20074;-64
2023/06/30 03:26:57;;;;;;;2.78;0.95;;;;;;;-142.75;100.00;76698.25;5061595;28;20025;-64
2023/06/30 03:29:22;;;;;;;4.72;1.00;;;;;;;-142.75;100.00;76694.31;5061548;28;20103;-64
2023/06/30 03:31:47;;;;;;;5.88;1.15;;;;;;;-142.75;100.00;76700.22;5061994;28;20020;-64
2023/06/30 03:34:13;;;;;;;4.00;1.33;;;;;;;-142.75;100.00;76698.25;5062216;28;20119;-64
2023/06/30 03:36:38;;;;;;;5.88;1.60;;;;;;;-142.75;100.00;76710.06;5061626;28;20055;-64
2023/06/30 03:39:05;;;;;;;4.53;1.20;;;;;;;-142.75;100.00;76710.06;5061239;28;20021;-64
2023/06/30 03:41:30;;;;;;;4.68;1.05;;;;;;;-142.75;100.00;76704.16;5061339;28;20253;-64
2023/06/30 03:43:56;;;;;;;6.70;1.52;;;;;;;-142.75;100.00;76712.03;5061304;28;20027;-64
2023/06/30 03:46:21;;;;;;;4.72;1.55;;;;;;;-142.75;100.00;76702.19;5062174;28;20031;-64
2023/06/30 03:48:46;;;;;;;4.00;1.13;;;;;;;-142.75;100.00;76696.28;5060417;28;20021;-64
2023/06/30 03:51:12;;;;;;;4.85;0.98;;;;;;;-142.75;100.00;76688.41;5062052;28;20089;-64
2023/06/30 03:53:37;;;;;;;1.98;0.93;;;;;;;-142.75;100.00;76684.47;5062050;28;20020;-64
2023/06/30 03:56:03;;;;;;;5.18;1.30;;;;;;;-142.75;100.00;76684.47;5046801;28;20066;-64
2023/06/30 03:58:28;;;;;;;3.25;1.10;;;;;;;-142.75;100.00;76678.56;5045765;28;20086;-64
2023/06/30 04:00:54;;;;;;;8.07;1.90;;;;;;;-142.75;100.00;76678.56;5045282;28;20017;-64
2023/06/30 04:03:20;;;;;;;7.72;1.73;;;;;;;-142.75;100.00;76674.63;5046153;28;20052;-64
2023/06/30 04:05:45;;;;;;;8.00;2.10;;;;;;;-142.75;100.00;76670.69;5045278;28;20058;-64
2023/06/30 04:08:11;;;;;;;8.50;1.25;;;;;;;-142.75;100.00;76676.59;5045077;28;20033;-64
2023/06/30 04:10:36;;;;;;;2.35;1.05;;;;;;;-142.75;100.00;76668.72;5045119;28;20131;-64
2023/06/30 04:13:05;;;;;;;5.15;1.30;;;;;;;-142.75;100.00;76660.84;5045523;28;20071;-64
2023/06/30 04:15:30;;;;;;;4.18;1.35;;;;;;;-142.75;100.00;76660.84;5044960;28;20052;-64
2023/06/30 04:17:55;;;;;;;4.82;1.30;;;;;;;-142.75;100.00;76647.06;5045822;28;20060;-64
2023/06/30 04:20:21;;;;;;;4.82;1.13;;;;;;;-142.75;100.00;76631.31;5045207;28;20049;-64
2023/06/30 04:22:47;;;;;;;4.97;1.30;;;;;;;-142.75;100.00;76621.47;5045469;28;20017;-64
2023/06/30 04:25:12;;;;;;;5.25;1.27;;;;;;;-142.75;100.00;76609.66;5045444;28;20027;-64
2023/06/30 04:27:38;;;;;;;5.82;1.48;;;;;;;-142.75;100.00;76599.81;5045206;28;20048;-64
2023/06/30 04:30:05;;;;;;;5.68;1.35;;;;;;;-142.75;100.00;76582.09;5050718;28;20523;-64
2023/06/30 04:32:30;;;;;;;2.80;1.45;;;;;;;-142.75;100.00;76576.19;5065309;28;20051;-64
2023/06/30 04:34:58;;;;;;;9.10;1.55;;;;;;;-142.75;100.00;76562.41;5064303;28;20052;-64
2023/06/30 04:37:23;;;;;;;5.88;2.22;;;;;;;-142.75;100.00;76554.53;5064337;28;20558;-64
2023/06/30 04:39:50;;;;;;;7.82;1.35;;;;;;;-142.75;100.00;76548.63;5064597;28;20108;-64
2023/06/30 04:42:15;;;;;;;5.53;1.33;;;;;;;-142.75;100.00;76542.72;5044242;28;20112;-64
2023/06/30 04:44:41;;;;;;;5.13;1.60;;;;;;;-142.75;100.00;76532.88;5044328;28;20032;-64
2023/06/30 04:47:06;;;;;;;4.70;1.55;;;;;;;-142.75;100.00;76527.00;5044857;28;20031;-64
2023/06/30 04:49:32;;;;;;;5.18;1.40;;;;;;;-142.75;100.00;76521.09;5044479;28;20028;-64
2023/06/30 04:51:58;;;;;;;2.25;1.08;;;;;;;-142.75;100.00;76515.19;5044417;28;20017;-64
2023/06/30 04:54:23;;;;;;;5.95;1.73;;;;;;;-142.75;100.00;76509.28;5044742;28;20033;-64
2023/06/30 04:56:49;;;;;;;6.80;1.58;;;;;;;-142.75;100.00;76509.28;5044517;28;20380;-64
2023/06/30 04:59:14;;;;;;;5.18;1.38;;;;;;;-142.75;100.00;76515.19;5046442;28;20013;-64
2023/06/30 05:01:40;;;;;;;4.18;1.52;;;;;;;-142.75;100.00;76507.31;5064543;28;20592;-64
2023/06/30 05:04:05;;;;;;;5.43;1.20;;;;;;;-142.75;100.00;76503.38;5064102;28;20039;-64
2023/06/30 05:06:30;;;;;;;4.15;1.67;;;;;;;-142.75;100.00;76493.53;5056662;28;20037;-64
2023/06/30 05:08:56;;;;;;;4.22;1.27;;;;;;;-142.75;100.00;76477.78;5043500;28;20117;-64
2023/06/30 05:11:21;;;;;;;6.35;1.70;;;;;;;-142.75;100.00;76464.00;5044217;28;20021;-64
2023/06/30 05:13:46;;;;;;;5.07;1.30;;;;;;;-142.75;100.00;76452.19;5045574;28;20574;-64
2023/06/30 05:16:12;;;;;;;4.03;1.38;;;;;;;-142.75;100.00;76456.13;5045843;28;20023;-64
2023/06/30 05:18:37;;;;;;;7.32;1.48;;;;;;;-142.75;100.00;76454.16;5047170;28;20033;-64
2023/06/30 05:21:03;;;;;;;4.38;1.67;;;;;;;-142.75;100.00;76446.28;5047051;28;20094;-65
2023/06/30 05:23:28;;;;;;;4.72;1.40;;;;;;;-142.75;100.00;76438.41;5047105;28;20028;-64
2023/06/30 05:25:54;;;;;;;5.93;1.40;;;;;;;-142.75;100.00;76432.50;5047096;28;20067;-64
2023/06/30 05:28:20;;;;;;;5.22;1.45;;;;;;;-142.75;100.00;76418.72;5047648;28;20110;-64
2023/06/30 05:30:45;;;;;;;4.13;1.25;;;;;;;-142.75;100.00;76399.03;5050090;28;20028;-64
2023/06/30 05:33:10;;;;;;;3.35;1.42;;;;;;;-142.75;100.00;76408.88;5067365;28;20028;-64
2023/06/30 05:35:36;;;;;;;5.60;1.63;;;;;;;-142.75;100.00;76404.94;5064398;28;20031;-64
2023/06/30 05:38:01;;;;;;;4.28;1.27;;;;;;;-142.75;100.00;76397.06;5051134;28;20781;-64
2023/06/30 05:40:26;;;;;;;5.50;1.60;;;;;;;-142.75;100.00;76389.19;5046772;28;20072;-64
2023/06/30 05:42:52;;;;;;;3.70;1.55;;;;;;;-142.75;100.00;76379.34;5053806;28;20066;-65
2023/06/30 05:45:17;;;;;;;5.43;1.50;;;;;;;-142.75;100.00;76377.38;5054541;28;20052;-65
2023/06/30 05:47:43;;;;;;;5.55;1.52;;;;;;;-142.75;100.00;76357.69;5066595;28;20472;-65
2023/06/30 05:50:08;;;;;;;3.42;1.30;;;;;;;-142.75;100.00;76361.63;5066276;28;20365;-64
2023/06/30 05:52:33;;;;;;;5.90;1.67;;;;;;;-142.75;100.00;76351.81;5053918;28;20109;-64
2023/06/30 05:55:01;;;;;;;6.68;1.38;;;;;;;-142.75;100.00;76328.19;5061116;28;20031;-65
2023/06/30 05:57:27;;;;;;;2.53;1.20;;;;;;;-142.75;100.00;76304.56;5046405;28;20024;-64
2023/06/30 05:59:52;;;;;;;5.70;1.40;;;;;;;-142.75;100.00;76298.66;5046210;28;20427;-64
2023/06/30 06:02:20;;;;;;;6.30;1.45;;;;;;;-142.75;100.00;76292.75;5050927;28;20032;-65
2023/06/30 06:04:45;;;;;;;5.55;2.00;;;;;;;-142.75;100.00;76282.91;5046542;28;20028;-64
2023/06/30 06:07:11;;;;;;;7.57;1.27;;;;;;;-142.75;100.00;76259.28;5046237;28;20624;-64
2023/06/30 06:09:37;;;;;;;5.47;1.83;;;;;;;-142.75;100.00;76247.47;5048725;28;20274;-64
2023/06/30 06:12:03;;;;;;;4.00;1.85;;;;;;;-142.75;100.00;76235.66;5051820;28;20029;-63
2023/06/30 06:14:28;;;;;;;5.18;1.52;;;;;;;-142.75;100.00;76239.59;5065799;28;20036;-64
2023/06/30 06:16:53;;;;;;;4.15;1.20;;;;;;;-142.75;100.00;76239.59;5065744;28;20126;-64
2023/06/30 06:19:20;;;;;;;9.38;1.50;;;;;;;-142.75;100.00;76235.66;5065755;28;20074;-64
2023/06/30 06:21:47;;;;;;;6.68;1.85;;;;;;;-142.75;100.00;76221.88;5066224;28;20077;-64
2023/06/30 06:24:12;;;;;;;3.20;1.33;;;;;;;-142.75;100.00;76215.97;5064429;28;20028;-64
2023/06/30 06:26:38;;;;;;;4.00;1.20;;;;;;;-142.75;100.00;76206.13;5065740;28;20024;-64
2023/06/30 06:29:03;;;;;;;2.67;1.27;;;;;;;-142.75;100.00;76200.25;5047059;28;20053;-64
2023/06/30 06:31:29;;;;;;;3.38;1.20;;;;;;;-142.75;100.00;76180.56;5045591;28;20036;-64
2023/06/30 06:33:54;;;;;;;2.22;0.88;;;;;;;-142.75;100.00;76184.50;5046290;28;20049;-64
2023/06/30 06:36:21;;;;;;;1.77;1.00;;;;;;;-142.75;100.00;76160.88;5045839;28;20090;-64
2023/06/30 06:38:47;;;;;;;5.25;0.82;;;;;;;-142.75;100.00;76137.25;5044731;28;20028;-64
2023/06/30 06:41:12;;;;;;;3.75;0.65;;;;;;;-142.75;100.00;76145.13;5045621;28;20029;-64
2023/06/30 06:43:37;;;;;;;5.95;1.38;;;;;;;-142.75;100.00;76160.88;5045854;28;20028;-64
2023/06/30 06:46:03;;;;;;;5.03;1.55;;;;;;;-142.75;100.00;76133.31;5045277;28;20025;-64
2023/06/30 06:48:28;;;;;;;4.68;1.40;;;;;;;-142.75;100.00;76123.47;5045607;28;20017;-64
2023/06/30 06:50:58;;;;;;;4.15;1.05;;;;;;;-142.75;100.00;76105.75;5045467;28;20399;-64
2023/06/30 06:53:27;;;;;;;4.88;1.27;;;;;;;-142.75;100.00;76078.19;5045606;28;20017;-64
2023/06/30 06:55:54;;;;;;;2.05;1.00;;;;;;;-142.75;100.00;76091.97;5045291;28;20036;-64
2023/06/30 06:58:20;;;;;;;3.35;1.13;;;;;;;-142.75;100.00;76086.06;5045418;28;20025;-64
2023/06/30 07:00:47;;;;;;;4.18;1.27;;;;;;;-142.75;100.00;76072.31;5045357;28;20109;-64
2023/06/30 07:03:13;;;;;;;5.63;1.27;;;;;;;-142.75;100.00;76042.78;5045681;28;20031;-64
2023/06/30 07:05:39;;;;;;;3.78;1.50;;;;;;;-142.75;100.00;76046.72;5045277;28;20017;-63
2023/06/30 07:08:08;;;;;;;5.60;1.48;;;;;;;-142.75;100.00;76038.84;5045279;28;20036;-64
2023/06/30 07:10:33;;;;;;;5.93;1.30;;;;;;;-142.75;100.00;76062.47;5044086;28;20025;-64
2023/06/30 07:12:59;;;;;;;4.75;1.17;;;;;;;-142.75;100.00;76036.88;5045066;28;20523;-64
2023/06/30 07:15:25;;;;;;;2.42;1.00;;;;;;;-142.75;100.00;76034.91;5044963;28;20416;-63
2023/06/30 07:17:50;;;;;;;2.72;1.30;;;;;;;-142.75;100.00;76023.09;5045328;28;20424;-63
2023/06/30 07:20:16;;;;;;;3.47;1.40;;;;;;;-142.75;100.00;75999.47;5045479;28;20566;-64
2023/06/30 07:22:41;;;;;;;3.95;1.60;;;;;;;-142.75;100.00;75987.66;5045017;28;20532;-64
2023/06/30 07:25:07;;;;;;;3.30;1.10;;;;;;;-142.75;100.00;75969.94;5044833;28;20021;-64
2023/06/30 07:27:35;;;;;;;4.45;1.20;;;;;;;-142.75;100.00;75964.03;5045060;28;20485;-64
2023/06/30 07:30:01;;;;;;;5.68;1.58;;;;;;;-142.75;100.00;75973.88;5044948;28;20025;-65
2023/06/30 07:32:26;;;;;;;5.50;1.33;;;;;;;-142.75;100.00;75981.75;5049279;28;20039;-65
2023/06/30 07:34:51;;;;;;;3.55;1.20;;;;;;;-142.75;100.00;76009.31;5055098;28;20074;-64
2023/06/30 07:37:17;;;;;;;6.13;1.20;;;;;;;-142.75;100.00;75995.53;5062684;28;20426;-62
2023/06/30 07:39:42;;;;;;;2.53;1.27;;;;;;;-142.75;100.00;75991.59;5068724;28;20035;-63
2023/06/30 07:42:08;;;;;;;2.53;1.17;;;;;;;-142.75;100.00;75983.72;5059522;28;20048;-62
2023/06/30 07:44:33;;;;;;;3.92;0.93;;;;;;;-142.75;100.00;75934.53;5048412;28;20040;-63
2023/06/30 07:46:58;;;;;;;4.05;1.30;;;;;;;-142.75;100.00;75926.66;5049017;28;20408;-63
2023/06/30 07:49:24;;;;;;;3.70;1.27;;;;;;;-142.75;100.00;75940.44;5047602;28;20032;-63
2023/06/30 07:51:50;;;;;;;6.28;1.58;;;;;;;-142.75;100.00;75964.03;5047729;28;20427;-63
2023/06/30 07:54:16;;;;;;;3.78;1.40;;;;;;;-142.75;100.00;75964.03;5053401;28;20086;-63
2023/06/30 07:56:41;;;;;;;3.45;1.40;;;;;;;-142.75;100.00;75950.28;5045964;28;20108;-63
2023/06/30 07:59:07;;;;;;;3.80;1.02;;;;;;;-142.75;100.00;75950.28;5052097;28;20500;-64
2023/06/30 08:01:32;;;;;;;4.13;1.33;;;;;;;-142.75;100.00;75908.94;5047793;28;20068;-63
2023/06/30 08:03:57;;;;;;;4.63;1.45;;;;;;;-142.75;97.67;75924.69;5051308;28;20104;-63
2023/06/30 08:06:23;;;;;;;3.50;1.20;;;;;;;-142.75;98.37;75897.13;5047151;28;20070;-63
2023/06/30 08:08:48;;;;;;;2.58;1.20;;;;;;;-142.75;98.56;75889.25;5044248;28;20017;-63
2023/06/30 08:11:13;;;;;;;6.20;1.17;;;;;;;-142.75;99.57;75895.16;5046843;28;20051;-63
2023/06/30 08:13:39;;;;;;;3.65;1.30;;;;;;;-142.75;98.56;75883.34;5047709;28;20021;-63
2023/06/30 08:16:04;;;;;;;4.63;1.10;;;;;;;-142.75;100.00;75873.50;5045990;28;20442;-63
2023/06/30 08:18:29;;;;;;;5.25;1.20;;;;;;;-142.75;94.23;75897.13;5049180;28;20500;-63
2023/06/30 08:20:58;;;;;;;2.85;1.05;;;;;;;-142.75;98.81;75877.44;5048095;28;20047;-63
2023/06/30 08:23:25;;;;;;;4.53;1.15;;;;;;;-142.75;95.04;75877.44;5051990;28;20028;-63
2023/06/30 08:25:53;;;;;;;2.72;1.10;;;;;;;-142.75;91.82;75885.31;5047400;28;20090;-63
2023/06/30 08:28:19;;;;;;;5.63;1.67;;;;;;;-142.75;94.26;75885.31;5048058;28;20040;-62
2023/06/30 08:30:44;;;;;;;3.70;1.30;;;;;;;-142.75;94.32;75905.00;5053576;28;20028;-61
2023/06/30 08:33:09;;;;;;;2.47;1.33;;;;;;;-142.75;94.40;75897.13;5068299;28;20028;-63
2023/06/30 08:35:35;;;;;;;3.67;0.95;;;;;;;-142.75;94.07;75897.13;5066426;28;20109;-63
2023/06/30 08:38:00;;;;;;;2.55;1.05;;;;;;;-142.75;100.00;75859.72;5067681;28;20030;-63
2023/06/30 08:40:29;;;;;;;4.55;1.13;;;;;;;-142.75;96.70;75869.56;5060492;28;20102;-63
2023/06/30 08:42:55;;;;;;;3.55;1.13;;;;;;;-142.75;91.51;75861.69;5047447;28;20056;-63
2023/06/30 08:45:25;;;;;;;6.78;0.90;;;;;;;-142.75;94.71;75834.16;5047163;28;20123;-63
2023/06/30 08:47:51;;;;;;;3.58;1.02;;;;;;;-142.75;93.22;75814.47;5046375;28;20025;-63
2023/06/30 08:50:16;;;;;;;3.25;1.17;;;;;;;-142.75;97.05;75798.72;5047832;28;20071;-64
2023/06/30 08:52:43;;;;;;;4.50;1.23;;;;;;;-142.75;93.19;75802.66;5049344;28;20075;-63
2023/06/30 08:55:09;;;;;;;1.77;0.80;;;;;;;-142.75;89.96;75826.28;5067420;28;20039;-65
2023/06/30 08:57:36;;;;;;;5.55;1.27;;;;;;;-142.75;88.33;75865.63;5067508;28;20025;-65
2023/06/30 09:00:01;;;;;;;2.85;0.98;;;;;;;-142.75;96.25;75869.56;5065184;28;20040;-65
2023/06/30 09:02:27;;;;;;;4.80;1.15;;;;;;;-142.75;97.66;75865.63;5048529;28;20060;-65
2023/06/30 09:04:53;;;;;;;2.28;0.80;;;;;;;-142.75;95.96;75853.84;5048160;28;20025;-65
2023/06/30 09:07:27;;;;;;;3.72;0.88;;;;;;;-142.75;96.48;75842.03;5047427;28;20525;-61
2023/06/30 09:10:02;;;;;;;2.65;1.00;;;;;;;-142.75;96.29;75849.91;5047021;28;20022;-63
2023/06/30 09:12:28;;;;;;;4.50;1.10;;;;;;;-142.75;95.82;75863.66;5046487;28;20408;-64
2023/06/30 09:14:58;;;;;;;2.72;0.75;;;;;;;-142.75;99.39;75847.94;5062412;28;20270;-63
2023/06/30 09:17:24;;;;;;;4.80;1.10;;;;;;;-142.75;95.29;75842.03;5067154;28;20031;-64
2023/06/30 09:19:50;;;;;;;2.28;1.05;;;;;;;-142.75;94.65;75800.69;5065883;28;20016;-66
2023/06/30 09:22:16;;;;;;;1.95;1.00;;;;;;;-142.75;92.82;75804.63;5046015;28;20066;-64
2023/06/30 09:24:42;;;;;;;1.98;0.90;;;;;;;-142.75;93.49;75790.84;5042826;28;20029;-64
2023/06/30 09:27:07;;;;;;;4.55;1.05;;;;;;;-142.75;89.21;75822.34;5044060;28;20248;-64
2023/06/30 09:29:36;;;;;;;3.03;0.85;;;;;;;-142.75;86.92;75842.03;5046948;28;20013;-64
2023/06/30 09:32:02;;;;;;;2.08;0.68;;;;;;;-142.75;84.99;75881.38;5045473;28;20060;-64
2023/06/30 09:34:28;;;;;;;2.60;0.90;;;;;;;-142.75;90.41;75889.25;5047023;28;20174;-64
2023/06/30 09:36:54;;;;;;;3.20;1.10;;;;;;;-142.75;90.77;75889.25;5046666;28;20096;-65
2023/06/30 09:39:21;;;;;;;2.97;0.85;;;;;;;-142.75;88.60;75903.03;5046708;28;20107;-65
2023/06/30 09:41:47;;;;;;;5.35;1.48;;;;;;;-142.75;88.80;75910.91;5046985;28;20547;-64
2023/06/30 09:44:14;;;;;;;3.22;0.70;;;;;;;-142.75;86.24;75908.94;5046555;28;20021;-63
2023/06/30 09:46:48;;;;;;;4.03;1.10;;;;;;;-142.75;86.33;75879.41;5053424;28;20024;-63
2023/06/30 09:49:26;;;;;;;1.73;0.80;;;;;;;-142.75;86.32;75822.34;5065521;28;20041;-64
2023/06/30 09:51:53;;;;;;;2.10;0.85;;;;;;;-142.75;85.55;75800.69;5066487;28;20025;-64
2023/06/30 09:54:20;;;;;;;2.60;1.10;;;;;;;-142.75;85.93;75759.38;5065516;28;20111;-63
2023/06/30 09:56:45;;;;;;;3.40;1.13;;;;;;;-142.75;82.88;75751.50;5066523;28;20433;-63
2023/06/30 09:59:11;;;;;;;2.58;0.90;;;;;;;-142.75;85.45;75704.25;5066255;28;20107;-64
2023/06/30 10:01:37;;;;;;;4.32;1.30;;;;;;;-142.75;81.28;75690.47;5066275;28;20024;-64
2023/06/30 10:04:02;;;;;;;2.67;0.98;;;;;;;-142.75;83.53;75668.84;5064677;28;20365;-64
2023/06/30 10:06:28;;;;;;;2.90;0.80;;;;;;;-142.75;80.79;75674.72;5046338;28;20101;-63
2023/06/30 10:08:57;;;;;;;2.97;1.08;;;;;;;-142.75;84.69;75657.03;5045609;28;20025;-63
2023/06/30 10:11:23;;;;;;;3.45;1.00;;;;;;;-142.75;80.21;75680.63;5060550;28;20048;-64
2023/06/30 10:13:54;;;;;;;2.60;1.08;;;;;;;-142.75;79.88;75710.16;5064256;28;20035;-63
2023/06/30 10:16:21;;;;;;;4.28;1.13;;;;;;;-142.75;82.36;75763.28;5046202;28;20071;-63
2023/06/30 10:18:49;;;;;;;3.35;0.90;;;;;;;-142.75;85.21;75757.41;5046305;28;20025;-59
2023/06/30 10:21:14;;;;;;;3.17;1.00;;;;;;;-142.75;84.75;75769.19;5046350;28;20064;-63
2023/06/30 10:23:42;;;;;;;2.83;1.23;;;;;;;-142.75;85.53;75784.94;5045942;28;20078;-64
2023/06/30 10:26:12;;;;;;;2.38;1.13;;;;;;;-142.75;88.74;75773.13;5045853;28;20056;-64
2023/06/30 10:28:37;;;;;;;5.28;1.30;;;;;;;-142.75;85.88;75798.72;5058034;28;20043;-64
2023/06/30 10:31:03;;;;;;;5.10;1.55;;;;;;;-142.75;86.46;75820.38;5065340;28;20484;-63
2023/06/30 10:33:29;;;;;;;4.25;1.33;;;;;;;-142.75;87.14;75794.78;5065847;28;20032;-64
2023/06/30 10:35:57;;;;;;;3.25;1.15;;;;;;;-142.75;89.55;75739.69;5065406;28;20099;-64
2023/06/30 10:38:23;;;;;;;4.72;1.00;;;;;;;-142.75;88.17;75741.66;5065258;28;20028;-63
2023/06/30 10:40:48;;;;;;;4.00;1.30;;;;;;;-142.75;85.86;75781.00;5052419;28;20071;-63
2023/06/30 10:43:14;;;;;;;3.42;1.17;;;;;;;-142.75;87.96;75779.03;5045791;28;20565;-63
2023/06/30 10:46:07;;;;;;;5.72;1.42;;;;;;;-142.75;90.78;75743.63;5044093;28;20029;-63
2023/06/30 10:48:33;;;;;;;3.30;1.10;;;;;;;-142.75;88.18;75771.16;5042918;28;20040;-63
2023/06/30 10:50:58;;;;;;;2.85;1.20;;;;;;;-142.75;88.33;75751.50;5044836;28;20032;-63
2023/06/30 10:53:26;;;;;;;2.30;1.40;;;;;;;-142.75;84.90;75767.22;5039677;28;20028;-63
2023/06/30 10:55:58;;;;;;;5.72;1.92;;;;;;;-142.75;83.60;75794.78;5044871;28;20111;-63
2023/06/30 10:58:24;;;;;;;2.40;1.35;;;;;;;-142.75;88.46;75790.84;5043252;28;20029;-63
2023/06/30 11:01:08;;;;;;;2.92;1.30;;;;;;;-142.75;87.68;75753.47;5038789;28;20098;-63
2023/06/30 11:03:55;;;;;;;2.28;1.10;;;;;;;-142.75;86.56;75712.13;5040517;28;20024;-63
2023/06/30 11:06:21;;;;;;;4.72;0.98;;;;;;;-142.75;85.90;75702.28;5043297;28;20215;-63
2023/06/30 11:09:09;;;;;;;2.35;0.90;;;;;;;-142.75;80.60;75692.44;5042220;28;20702;-64